Time;durP1;ratioP1;P1;durP2;ratioP2;P2;SDS_P1;SDS_P2;PMS_P1;PMS_P2;Temp;Humidity;BMP_temperature;BMP_pressure;BME280_temperature;BME280_humidity;BME280_pressure;Samples;Min_cycle;Max_cycle;Signal;HPM_P1;HPM_P2
2022/01/08 00:01:09;;;;;;;6.45;5.85;;;;;;;1.38;81.69;100301.94;4946397;28;20114;-19
2022/01/08 00:03:35;;;;;;;7.35;6.53;;;;;;;1.38;81.77;100294.13;4945537;28;20027;-18
2022/01/08 00:06:00;;;;;;;7.57;6.80;;;;;;;1.40;81.98;100291.56;4949481;29;20486;-18
2022/01/08 00:08:26;;;;;;;7.30;6.45;;;;;;;1.41;81.74;100295.91;4948297;28;20039;-19
2022/01/08 00:10:53;;;;;;;9.45;6.50;;;;;;;1.40;81.92;100295.03;4964669;28;20465;-18
2022/01/08 00:13:19;;;;;;;7.93;6.90;;;;;;;1.40;81.87;100291.56;4945360;28;20019;-19
2022/01/08 00:15:44;;;;;;;7.28;6.28;;;;;;;1.38;81.98;100288.94;4949618;28;20125;-18
2022/01/08 00:18:10;;;;;;;7.70;6.25;;;;;;;1.38;81.59;100283.75;4943797;28;20023;-19
2022/01/08 00:20:35;;;;;;;8.32;6.63;;;;;;;1.40;81.67;100282.03;4948538;28;20031;-18
2022/01/08 00:23:02;;;;;;;7.22;6.20;;;;;;;1.40;81.78;100282.03;4943520;28;20027;-18
2022/01/08 00:25:27;;;;;;;6.97;6.05;;;;;;;1.40;81.74;100275.97;4947886;28;20410;-18
2022/01/08 00:27:53;;;;;;;7.05;6.10;;;;;;;1.40;81.73;100276.84;4950419;29;20027;-18
2022/01/08 00:30:18;;;;;;;7.80;7.00;;;;;;;1.40;81.67;100282.03;4947251;28;20031;-18
2022/01/08 00:32:44;;;;;;;7.03;6.22;;;;;;;1.38;81.79;100273.34;4948504;28;20501;-18
2022/01/08 00:35:10;;;;;;;7.22;5.95;;;;;;;1.38;81.73;100267.25;4947382;28;20070;-18
2022/01/08 00:37:39;;;;;;;6.80;6.10;;;;;;;1.39;81.69;100269.00;4947937;28;20027;-18
2022/01/08 00:40:07;;;;;;;6.65;5.97;;;;;;;1.38;81.78;100273.34;4947358;28;20031;-19
2022/01/08 00:42:33;;;;;;;7.18;6.00;;;;;;;1.35;81.77;100262.88;4950033;28;20053;-28
2022/01/08 00:44:59;;;;;;;7.70;6.47;;;;;;;1.32;81.55;100256.72;4947556;28;20536;-18
2022/01/08 00:47:24;;;;;;;7.32;6.63;;;;;;;1.36;81.44;100264.63;4933398;29;20057;-18
2022/01/08 00:49:50;;;;;;;7.05;6.35;;;;;;;1.33;81.47;100255.91;4948360;28;20034;-19
2022/01/08 00:52:15;;;;;;;11.18;6.63;;;;;;;1.34;81.76;100266.34;4946678;28;20430;-19
2022/01/08 00:54:41;;;;;;;7.45;6.75;;;;;;;1.32;81.72;100268.00;4946520;28;20071;-20
2022/01/08 00:57:06;;;;;;;7.03;6.15;;;;;;;1.32;81.67;100265.41;4946223;28;20145;-18
2022/01/08 00:59:32;;;;;;;7.60;6.22;;;;;;;1.32;81.82;100261.91;4948494;28;20042;-18
2022/01/08 01:01:58;;;;;;;6.88;6.00;;;;;;;1.29;81.66;100249.75;4944282;29;20032;-19
2022/01/08 01:04:23;;;;;;;8.23;6.60;;;;;;;1.30;81.52;100259.28;4946536;28;20078;-18
2022/01/08 01:06:49;;;;;;;6.60;5.90;;;;;;;1.27;81.70;100249.69;4946242;28;20027;-18
2022/01/08 01:09:14;;;;;;;7.20;6.47;;;;;;;1.27;81.56;100254.03;4947009;29;20027;-18
2022/01/08 01:11:40;;;;;;;7.10;6.35;;;;;;;1.26;81.66;100253.16;4944488;28;20038;-19
2022/01/08 01:14:06;;;;;;;6.20;5.60;;;;;;;1.24;81.48;100257.41;4948456;28;20153;-18
2022/01/08 01:16:31;;;;;;;7.53;6.05;;;;;;;1.24;81.86;100253.97;4948260;28;20044;-18
2022/01/08 01:18:59;;;;;;;7.90;6.00;;;;;;;1.24;81.57;100264.34;4944297;28;20055;-18
2022/01/08 01:21:24;;;;;;;7.28;5.78;;;;;;;1.22;81.54;100266.03;4945714;28;20097;-19
2022/01/08 01:23:51;;;;;;;7.80;6.18;;;;;;;1.21;81.88;100265.19;4944115;28;20031;-18
2022/01/08 01:26:21;;;;;;;6.75;6.10;;;;;;;1.20;81.88;100268.59;4948230;29;20086;-20
2022/01/08 01:42:53;;;;;;;5.60;5.05;;;;;;;1.15;81.41;100260.72;4944586;29;20041;-20
2022/01/08 01:48:03;;;;;;;6.93;6.20;;;;;;;1.11;81.76;100258.91;4946080;29;20035;-21
2022/01/08 01:50:29;;;;;;;7.05;5.85;;;;;;;1.13;81.46;100257.19;4949920;28;20027;-21
2022/01/08 01:52:54;;;;;;;7.68;6.68;;;;;;;1.12;81.40;100250.25;4947191;29;20034;-20
2022/01/08 01:55:20;;;;;;;5.82;5.22;;;;;;;1.12;81.54;100255.44;4946193;28;20027;-21
2022/01/08 01:57:47;;;;;;;6.55;5.78;;;;;;;1.12;81.83;100250.25;4943349;28;20051;-20
2022/01/08 02:00:13;;;;;;;6.22;5.63;;;;;;;1.10;81.40;100251.91;4946265;28;20023;-21
2022/01/08 02:02:39;;;;;;;6.22;5.63;;;;;;;1.10;81.67;100246.72;4947934;29;20032;-20
2022/01/08 02:05:05;;;;;;;6.25;5.07;;;;;;;1.09;81.84;100250.16;4948952;29;20501;-22
2022/01/08 02:07:30;;;;;;;6.45;5.55;;;;;;;1.06;81.71;100239.72;4947651;28;20027;-26
2022/01/08 02:09:56;;;;;;;6.22;5.63;;;;;;;1.08;81.59;100237.16;4944629;28;20030;-22
2022/01/08 02:12:22;;;;;;;6.18;5.57;;;;;;;1.06;81.17;100237.09;4948865;28;20048;-20
2022/01/08 02:14:48;;;;;;;6.68;5.97;;;;;;;1.05;81.50;100237.97;4954123;28;20106;-20
2022/01/08 02:17:14;;;;;;;5.57;4.93;;;;;;;1.02;81.59;100227.50;4951057;28;20082;-18
2022/01/08 02:19:40;;;;;;;5.65;5.00;;;;;;;1.02;81.33;100227.50;4952761;28;20534;-18
2022/01/08 02:22:09;;;;;;;7.03;5.57;;;;;;;0.99;81.49;100227.41;4950441;28;20118;-18
2022/01/08 02:24:35;;;;;;;6.93;5.28;;;;;;;0.98;81.63;100229.16;4950421;28;20046;-19
2022/01/08 02:27:00;;;;;;;5.88;5.10;;;;;;;0.98;81.59;100225.66;4947463;28;20020;-19
2022/01/08 02:29:26;;;;;;;6.55;5.90;;;;;;;0.95;81.46;100215.22;4948983;28;20100;-18
2022/01/08 02:32:14;;;;;;;5.57;4.85;;;;;;;0.96;81.25;100227.34;4951093;28;20114;-18
2022/01/08 02:34:41;;;;;;;6.15;5.63;;;;;;;0.93;81.26;100222.97;4949775;28;20027;-18
2022/01/08 02:37:07;;;;;;;6.15;5.15;;;;;;;0.93;81.59;100216.91;4948697;28;20486;-18
2022/01/08 02:39:41;;;;;;;5.63;5.03;;;;;;;0.91;81.41;100209.06;4950867;28;20598;-18
2022/01/08 02:42:10;;;;;;;6.38;4.90;;;;;;;0.89;81.51;100215.94;4951077;28;20055;-18
2022/01/08 02:44:36;;;;;;;5.25;4.75;;;;;;;0.89;81.61;100222.03;4950329;29;20027;-18
2022/01/08 02:47:01;;;;;;;5.40;4.60;;;;;;;0.87;81.31;100215.03;4947952;28;20031;-18
2022/01/08 02:49:27;;;;;;;5.40;4.75;;;;;;;0.86;81.31;100214.16;4950358;28;20030;-18
2022/01/08 02:51:53;;;;;;;5.47;4.97;;;;;;;0.85;81.63;100216.72;4947265;28;20023;-18
2022/01/08 02:54:19;;;;;;;5.70;5.13;;;;;;;0.83;81.30;100214.09;4952241;28;20019;-18
2022/01/08 02:56:46;;;;;;;5.93;5.32;;;;;;;0.81;81.66;100214.91;4950085;28;20030;-18
2022/01/08 02:59:13;;;;;;;5.85;5.13;;;;;;;0.82;81.53;100222.72;4948885;28;20074;-18
2022/01/08 03:01:39;;;;;;;5.43;4.82;;;;;;;0.82;81.60;100229.63;4946407;28;20172;-18
2022/01/08 03:04:05;;;;;;;6.88;4.25;;;;;;;0.81;81.55;100233.97;4951768;29;20096;-18
2022/01/08 03:06:31;;;;;;;5.40;4.90;;;;;;;0.80;81.61;100234.78;4954027;28;20099;-18
2022/01/08 03:08:56;;;;;;;6.20;4.95;;;;;;;0.79;81.57;100235.63;4982344;28;20110;-18
2022/01/08 03:11:22;;;;;;;5.80;4.25;;;;;;;0.82;81.82;100230.50;4948097;29;20058;-17
2022/01/08 03:13:47;;;;;;;5.40;4.90;;;;;;;0.81;81.53;100233.97;4949891;29;20028;-18
2022/01/08 03:16:13;;;;;;;5.32;4.60;;;;;;;0.83;81.84;100234.84;4948579;28;20035;-18
2022/01/08 03:18:40;;;;;;;5.22;4.70;;;;;;;0.82;81.47;100232.22;4949696;29;20442;-19
2022/01/08 03:21:14;;;;;;;5.65;5.00;;;;;;;0.82;81.86;100232.22;4946520;28;20035;-18
2022/01/08 03:23:51;;;;;;;4.95;4.53;;;;;;;0.82;81.94;100232.22;4949022;28;20401;-21
2022/01/08 03:26:18;;;;;;;5.55;4.78;;;;;;;0.83;81.51;100227.06;4948375;28;20020;-18
2022/01/08 03:28:44;;;;;;;5.57;5.07;;;;;;;0.82;81.76;100225.31;4950793;28;20037;-19
2022/01/08 03:31:10;;;;;;;6.70;5.35;;;;;;;0.82;81.92;100227.03;4932583;29;20019;-19
2022/01/08 03:33:36;;;;;;;6.53;5.07;;;;;;;0.84;81.64;100222.75;4950998;28;20090;-22
2022/01/08 03:36:01;;;;;;;5.25;4.75;;;;;;;0.81;81.69;100213.19;4948591;29;20024;-18
2022/01/08 03:38:27;;;;;;;5.03;4.53;;;;;;;0.83;81.88;100221.00;4949844;28;20032;-19
2022/01/08 03:40:52;;;;;;;5.28;4.78;;;;;;;0.84;81.98;100223.63;4949287;28;20029;-18
2022/01/08 03:43:18;;;;;;;5.28;4.32;;;;;;;0.85;81.77;100230.59;4948711;29;20536;-18
2022/01/08 03:45:43;;;;;;;6.13;4.50;;;;;;;0.85;82.06;100228.00;4948465;28;20055;-18
2022/01/08 03:48:31;;;;;;;5.45;4.90;;;;;;;0.86;82.37;100216.75;4949495;28;20389;-18
2022/01/08 03:50:57;;;;;;;4.97;4.32;;;;;;;0.85;82.04;100204.63;4947854;29;20025;-19
2022/01/08 03:53:23;;;;;;;5.32;4.50;;;;;;;0.86;82.20;100215.88;4950336;28;20127;-18
2022/01/08 03:55:49;;;;;;;5.40;4.70;;;;;;;0.89;81.84;100211.63;4946365;28;20023;-22
2022/01/08 03:58:14;;;;;;;5.07;4.68;;;;;;;0.84;81.94;100205.44;4947793;29;20489;-19
2022/01/08 04:00:40;;;;;;;5.43;4.68;;;;;;;0.89;81.80;100214.22;4943988;28;20417;-20
2022/01/08 04:03:05;;;;;;;5.22;4.68;;;;;;;0.90;81.77;100215.09;4949819;28;20086;-17
2022/01/08 04:05:31;;;;;;;5.60;5.00;;;;;;;0.92;82.12;100215.13;4948720;28;20020;-18
2022/01/08 04:07:56;;;;;;;6.65;4.95;;;;;;;0.93;81.69;100209.13;4933572;29;20293;-18
2022/01/08 04:10:22;;;;;;;6.05;4.88;;;;;;;0.92;82.06;100207.34;4951126;28;20035;-18
2022/01/08 04:12:56;;;;;;;6.28;5.43;;;;;;;0.93;82.08;100214.31;4948127;29;20102;-18
2022/01/08 04:17:52;;;;;;;4.90;4.50;;;;;;;0.94;81.70;100210.88;4946796;28;20027;-18
2022/01/08 04:20:18;;;;;;;6.05;4.97;;;;;;;0.95;81.78;100215.22;4981869;28;20125;-19
2022/01/08 04:22:47;;;;;;;6.63;5.22;;;;;;;0.94;81.83;100211.75;4948206;28;20031;-18
2022/01/08 04:25:12;;;;;;;5.75;4.53;;;;;;;0.95;82.11;100216.09;4948686;29;20026;-19
2022/01/08 04:27:38;;;;;;;5.95;4.40;;;;;;;0.92;82.01;100204.75;4948394;28;20019;-20
2022/01/08 04:30:04;;;;;;;5.93;5.00;;;;;;;0.92;81.70;100204.75;4963015;28;20057;-18
2022/01/08 04:32:31;;;;;;;6.15;4.57;;;;;;;0.95;82.12;100215.22;4947339;28;20046;-18
2022/01/08 04:34:56;;;;;;;5.63;5.07;;;;;;;0.95;81.93;100212.59;4944649;28;20058;-18
2022/01/08 04:37:22;;;;;;;6.53;5.15;;;;;;;0.92;81.62;100205.63;4949684;28;20504;-19
2022/01/08 04:39:47;;;;;;;4.97;4.47;;;;;;;0.95;82.09;100221.28;4947494;28;20040;-18
2022/01/08 04:42:13;;;;;;;5.00;4.50;;;;;;;0.93;81.91;100212.56;4948522;28;20031;-18
2022/01/08 04:44:38;;;;;;;4.70;4.25;;;;;;;0.93;81.75;100212.56;4946661;28;20029;-18
2022/01/08 04:47:04;;;;;;;6.25;4.70;;;;;;;0.93;81.80;100206.53;4949570;29;20482;-19
2022/01/08 04:49:29;;;;;;;5.28;4.60;;;;;;;0.94;82.03;100208.28;4945118;29;20055;-19
2022/01/08 04:51:55;;;;;;;4.85;4.45;;;;;;;0.94;81.91;100208.28;4943694;29;20118;-18
2022/01/08 04:54:21;;;;;;;5.55;4.35;;;;;;;0.94;81.65;100205.66;4948092;28;20109;-19
2022/01/08 04:56:47;;;;;;;5.20;4.70;;;;;;;0.93;81.50;100209.97;4948787;28;20098;-19
2022/01/08 04:59:13;;;;;;;6.22;5.13;;;;;;;0.93;81.51;100202.19;4951012;28;20753;-19
2022/01/08 05:01:38;;;;;;;4.82;4.35;;;;;;;0.93;81.76;100196.13;4946013;28;21517;-21
2022/01/08 05:04:04;;;;;;;5.10;4.43;;;;;;;0.92;81.81;100194.34;4946837;29;20086;-21
2022/01/08 05:06:30;;;;;;;5.70;4.78;;;;;;;0.94;81.85;100201.38;4947177;28;20022;-21
2022/01/08 05:08:56;;;;;;;5.00;4.32;;;;;;;0.91;81.67;100208.19;4947279;29;20490;-20
2022/01/08 05:11:22;;;;;;;4.80;4.40;;;;;;;0.89;81.89;100201.25;4932411;29;20042;-21
2022/01/08 05:13:50;;;;;;;5.03;4.53;;;;;;;0.89;81.48;100196.06;4949315;28;20023;-23
2022/01/08 05:16:15;;;;;;;5.38;4.72;;;;;;;0.89;81.68;100205.56;4933478;29;20035;-20
2022/01/08 05:18:41;;;;;;;5.78;5.22;;;;;;;0.89;81.90;100201.25;4948742;28;20485;-21
2022/01/08 05:21:20;;;;;;;4.97;4.18;;;;;;;0.88;81.87;100204.69;4947318;29;20047;-21
2022/01/08 05:23:46;;;;;;;5.45;4.72;;;;;;;0.90;81.70;100199.50;4946540;29;20058;-19
2022/01/08 05:26:11;;;;;;;4.93;4.43;;;;;;;0.86;81.85;100201.19;4945800;29;20487;-20
2022/01/08 05:28:37;;;;;;;5.45;4.28;;;;;;;0.86;81.47;100193.38;4947062;28;20114;-20
2022/01/08 05:31:02;;;;;;;5.05;4.57;;;;;;;0.87;81.82;100205.50;4946081;29;20031;-20
2022/01/08 05:33:28;;;;;;;5.00;4.50;;;;;;;0.87;81.47;100202.91;4949286;28;20031;-21
2022/01/08 05:35:53;;;;;;;5.53;4.80;;;;;;;0.87;81.67;100202.91;4946405;28;20050;-20
2022/01/08 05:38:19;;;;;;;5.78;4.43;;;;;;;0.88;81.46;100203.81;4960406;28;20036;-20
2022/01/08 05:40:44;;;;;;;4.93;4.25;;;;;;;0.86;81.90;100200.28;4947240;28;20031;-26
2022/01/08 05:43:10;;;;;;;5.25;4.72;;;;;;;0.86;82.07;100195.97;4948124;28;20031;-20
2022/01/08 05:45:35;;;;;;;4.68;4.28;;;;;;;0.85;81.97;100194.22;4944044;28;20047;-21
2022/01/08 05:48:00;;;;;;;4.60;4.13;;;;;;;0.83;81.67;100195.06;4943534;28;20103;-20
2022/01/08 05:50:26;;;;;;;5.13;4.63;;;;;;;0.83;81.68;100184.66;4949805;28;20110;-20
2022/01/08 05:52:51;;;;;;;4.63;4.22;;;;;;;0.84;81.98;100191.59;4948301;28;20038;-20
2022/01/08 05:55:17;;;;;;;4.80;4.40;;;;;;;0.83;81.50;100198.50;4948099;28;20042;-21
2022/01/08 05:57:43;;;;;;;5.28;4.78;;;;;;;0.83;81.51;100200.25;4947554;28;20031;-20
2022/01/08 06:00:09;;;;;;;5.00;4.50;;;;;;;0.83;81.74;100208.88;4946871;28;20039;-21
2022/01/08 06:02:38;;;;;;;5.43;4.20;;;;;;;0.83;81.61;100211.47;4947775;28;20439;-21
2022/01/08 06:05:04;;;;;;;5.43;4.53;;;;;;;0.80;81.84;100206.22;4946339;29;20024;-20
2022/01/08 06:07:30;;;;;;;5.65;4.30;;;;;;;0.81;81.69;100217.50;4948713;29;20023;-21
2022/01/08 06:09:55;;;;;;;5.20;4.70;;;;;;;0.79;81.75;100225.25;4948819;28;20042;-20
2022/01/08 06:12:21;;;;;;;5.38;4.88;;;;;;;0.81;81.51;100225.28;4949966;28;20031;-21
2022/01/08 06:14:46;;;;;;;5.20;4.70;;;;;;;0.81;81.71;100220.97;4942992;28;20036;-20
2022/01/08 06:17:12;;;;;;;5.13;4.13;;;;;;;0.78;82.07;100223.50;4947052;28;20151;-21
2022/01/08 06:19:38;;;;;;;4.78;4.38;;;;;;;0.78;81.51;100220.91;4942013;28;20023;-19
2022/01/08 06:22:03;;;;;;;5.25;4.32;;;;;;;0.79;81.63;100224.34;4946431;28;20235;-21
2022/01/08 06:24:29;;;;;;;5.25;4.38;;;;;;;0.79;81.82;100230.44;4947219;28;20481;-21
2022/01/08 06:26:55;;;;;;;4.35;3.80;;;;;;;0.77;81.90;100233.00;4944823;28;20055;-24
2022/01/08 06:29:20;;;;;;;4.00;3.63;;;;;;;0.78;81.82;100236.47;4947990;28;20023;-20
2022/01/08 06:31:46;;;;;;;4.93;4.43;;;;;;;0.75;81.53;100239.88;4946241;28;20450;-20
2022/01/08 06:34:11;;;;;;;4.97;4.50;;;;;;;0.77;81.66;100238.19;4947549;28;20027;-21
2022/01/08 06:36:37;;;;;;;4.35;3.95;;;;;;;0.77;81.71;100247.72;4948641;28;20023;-21
2022/01/08 06:39:03;;;;;;;4.85;4.43;;;;;;;0.75;81.33;100249.38;4948415;28;20035;-20
2022/01/08 06:41:31;;;;;;;4.43;4.03;;;;;;;0.75;81.83;100249.38;4947482;28;20106;-21
2022/01/08 06:43:57;;;;;;;4.80;4.15;;;;;;;0.72;81.36;100245.00;4945768;28;20024;-21
2022/01/08 06:46:23;;;;;;;4.13;3.75;;;;;;;0.72;81.75;100251.88;4947772;28;20034;-20
2022/01/08 06:48:49;;;;;;;4.63;4.22;;;;;;;0.73;81.50;100257.13;4947105;28;20504;-21
2022/01/08 06:51:14;;;;;;;4.72;4.32;;;;;;;0.72;81.38;100257.09;4944478;28;20027;-21
2022/01/08 06:53:40;;;;;;;5.45;4.35;;;;;;;0.72;82.14;100263.16;4947188;28;20031;-21
2022/01/08 06:56:05;;;;;;;4.13;3.72;;;;;;;0.72;81.69;100265.75;4944754;28;20038;-21
2022/01/08 06:58:32;;;;;;;4.47;4.07;;;;;;;0.72;81.35;100278.75;4950178;28;20038;-21
2022/01/08 07:00:57;;;;;;;4.35;3.95;;;;;;;0.72;81.67;100275.25;4950050;28;20032;-20
2022/01/08 07:03:23;;;;;;;4.70;4.30;;;;;;;0.70;81.95;100272.63;4949781;28;20023;-21
2022/01/08 07:05:48;;;;;;;4.85;4.35;;;;;;;0.71;81.62;100276.09;4947959;28;20074;-20
2022/01/08 07:08:15;;;;;;;3.97;3.60;;;;;;;0.71;81.53;100273.50;4946819;28;20039;-21
2022/01/08 07:10:40;;;;;;;4.72;4.18;;;;;;;0.69;81.66;100269.97;4951647;29;20066;-21
2022/01/08 07:13:06;;;;;;;4.40;4.00;;;;;;;0.71;81.79;100273.50;4949310;28;20067;-21
2022/01/08 07:15:32;;;;;;;4.55;4.10;;;;;;;0.69;81.40;100270.88;4951262;28;20039;-17
2022/01/08 07:17:57;;;;;;;4.68;4.22;;;;;;;0.69;82.18;100280.38;4948808;28;20035;-21
2022/01/08 07:20:23;;;;;;;4.85;4.35;;;;;;;0.69;81.71;100275.16;4951453;28;20397;-20
2022/01/08 07:22:49;;;;;;;5.00;4.30;;;;;;;0.70;81.52;100277.81;4947499;28;20027;-20
2022/01/08 07:25:14;;;;;;;4.78;4.25;;;;;;;0.70;81.99;100276.94;4942711;28;20071;-21
2022/01/08 07:27:40;;;;;;;5.20;4.70;;;;;;;0.64;81.97;100268.16;4947763;28;20046;-22
2022/01/08 07:30:07;;;;;;;5.43;4.93;;;;;;;0.66;81.79;100273.38;4950853;28;20454;-21
2022/01/08 07:32:45;;;;;;;5.13;4.18;;;;;;;0.70;81.61;100274.34;4946905;28;20549;-21
2022/01/08 07:35:14;;;;;;;5.15;4.65;;;;;;;0.69;81.88;100281.25;4945438;28;20027;-20
2022/01/08 07:37:40;;;;;;;5.78;5.28;;;;;;;0.68;81.72;100286.41;4953596;28;20537;-22
2022/01/08 07:40:06;;;;;;;5.80;4.88;;;;;;;0.68;81.61;100289.00;4945621;28;20027;-21
2022/01/08 07:42:32;;;;;;;6.80;6.20;;;;;;;0.66;81.79;100290.69;4949556;28;20031;-20
2022/01/08 07:44:57;;;;;;;6.80;6.05;;;;;;;0.67;82.09;100290.75;4948991;28;20043;-20
2022/01/08 07:47:23;;;;;;;6.88;5.90;;;;;;;0.67;81.62;100292.44;4946004;28;20398;-21
2022/01/08 07:49:48;;;;;;;6.75;5.85;;;;;;;0.67;82.06;100292.44;4951568;29;20030;-22
2022/01/08 07:52:14;;;;;;;6.70;5.95;;;;;;;0.65;81.69;100289.81;4949406;28;20465;-21
2022/01/08 07:54:40;;;;;;;7.28;6.25;;;;;;;0.67;81.82;100292.44;4949474;28;20038;-20
2022/01/08 07:57:06;;;;;;;7.80;6.78;;;;;;;0.64;81.56;100291.50;4949552;29;20074;-20
2022/01/08 07:59:31;;;;;;;10.57;7.13;;;;;;;0.67;81.86;100302.81;4932868;29;20024;-21
2022/01/08 08:01:57;;;;;;;8.77;7.38;;;;;;;0.66;82.00;100295.88;4950250;28;20035;-21
2022/01/08 08:04:22;;;;;;;10.73;7.18;;;;;;;0.64;81.67;100301.03;4949807;28;20081;-21
2022/01/08 08:06:48;;;;;;;9.32;7.55;;;;;;;0.63;81.90;100307.94;4949935;28;20042;-21
2022/01/08 08:09:14;;;;;;;8.90;7.43;;;;;;;0.63;82.03;100297.56;4949198;29;20042;-21
2022/01/08 08:11:41;;;;;;;9.30;7.05;;;;;;;0.64;82.21;100309.69;4951501;28;20038;-20
2022/01/08 08:14:07;;;;;;;10.25;7.82;;;;;;;0.63;82.12;100301.84;4949878;28;20449;-20
2022/01/08 08:16:32;;;;;;;10.77;7.68;;;;;;;0.62;82.02;100306.19;4948169;29;20059;-21
2022/01/08 08:18:58;;;;;;;8.70;7.78;;;;;;;0.64;81.78;100311.41;4948853;29;20564;-23
2022/01/08 08:21:23;;;;;;;9.23;8.13;;;;;;;0.64;82.07;100314.88;4948106;28;20390;-22
2022/01/08 08:23:49;;;;;;;11.82;8.05;;;;;;;0.65;82.15;100305.38;4949941;28;20066;-21
2022/01/08 08:26:14;;;;;;;11.88;9.07;;;;;;;0.64;82.08;100307.09;4948516;29;20027;-21
2022/01/08 08:28:40;;;;;;;12.35;8.70;;;;;;;0.64;82.16;100301.91;4947590;28;20027;-21
2022/01/08 08:31:06;;;;;;;12.27;8.88;;;;;;;0.61;81.94;100296.66;4947522;28;20066;-22
2022/01/08 08:33:31;;;;;;;11.68;9.23;;;;;;;0.63;81.92;100302.75;4948627;28;20081;-19
2022/01/08 08:35:57;;;;;;;12.40;9.85;;;;;;;0.64;81.85;100295.84;4946654;28;20067;-21
2022/01/08 08:38:23;;;;;;;13.25;10.00;;;;;;;0.65;82.33;100297.59;4947037;28;20042;-21
2022/01/08 08:40:51;;;;;;;11.63;9.20;;;;;;;0.65;82.35;100300.19;4980082;28;20512;-22
2022/01/08 08:43:17;;;;;;;11.23;9.25;;;;;;;0.66;82.41;100295.88;4949924;28;20031;-21
2022/01/08 08:45:42;;;;;;;13.52;10.23;;;;;;;0.64;82.07;100299.31;4948669;28;20035;-21
2022/01/08 08:48:08;;;;;;;11.68;9.10;;;;;;;0.66;82.14;100301.06;4949608;28;20397;-22
2022/01/08 08:50:33;;;;;;;13.27;9.77;;;;;;;0.67;82.16;100308.03;4947983;28;20110;-19
2022/01/08 08:52:59;;;;;;;11.20;9.13;;;;;;;0.67;82.44;100302.81;4949151;28;20314;-22
2022/01/08 08:55:25;;;;;;;12.70;9.52;;;;;;;0.67;82.37;100303.72;4949030;29;20039;-21
2022/01/08 08:57:50;;;;;;;9.88;8.65;;;;;;;0.63;82.33;100294.97;4945206;28;20386;-22
2022/01/08 09:00:16;;;;;;;12.40;9.07;;;;;;;0.66;82.05;100301.06;4943487;28;20083;-22
2022/01/08 09:02:42;;;;;;;13.70;8.95;;;;;;;0.69;82.11;100306.31;4946222;29;20065;-22
2022/01/08 09:05:08;;;;;;;10.55;8.18;;;;;;;0.67;81.76;100297.63;4947656;28;20080;-22
2022/01/08 09:07:34;;;;;;;10.05;8.60;;;;;;;0.71;82.38;100309.84;4947278;28;20056;-22
2022/01/08 09:10:04;;;;;;;10.90;8.63;;;;;;;0.71;82.47;100321.13;4931303;28;20027;-21
2022/01/08 09:12:30;;;;;;;9.27;7.97;;;;;;;0.72;82.35;100309.00;4918991;28;20711;-23
2022/01/08 09:14:56;;;;;;;9.52;8.38;;;;;;;0.73;82.42;100313.38;4945738;28;20493;-22
2022/01/08 09:17:24;;;;;;;9.57;7.63;;;;;;;0.74;82.52;100315.13;4949366;28;20039;-22
2022/01/08 09:19:50;;;;;;;10.35;8.60;;;;;;;0.75;82.07;100314.28;4946408;28;20499;-23
2022/01/08 09:22:15;;;;;;;9.70;7.75;;;;;;;0.75;82.20;100309.97;4945091;28;20027;-22
2022/01/08 09:24:41;;;;;;;10.43;7.97;;;;;;;0.75;82.75;100311.69;4945595;28;20027;-22
2022/01/08 09:27:07;;;;;;;12.77;8.85;;;;;;;0.76;82.19;100308.25;4951658;28;20027;-21
2022/01/08 09:29:33;;;;;;;11.30;8.18;;;;;;;0.78;82.13;100306.56;4947364;28;20038;-22
2022/01/08 09:31:59;;;;;;;10.38;8.13;;;;;;;0.77;82.31;100307.41;4946031;28;20035;-22
2022/01/08 09:34:25;;;;;;;11.73;7.85;;;;;;;0.80;82.59;100315.25;4933171;28;20126;-22
2022/01/08 09:36:51;;;;;;;10.70;8.32;;;;;;;0.83;82.21;100311.88;4947114;28;20027;-23
2022/01/08 09:39:18;;;;;;;9.43;7.63;;;;;;;0.84;82.08;100322.28;4950595;28;20126;-22
2022/01/08 09:41:44;;;;;;;8.73;7.72;;;;;;;0.85;82.27;100326.66;4947862;28;20375;-23
2022/01/08 09:44:11;;;;;;;10.02;7.35;;;;;;;0.85;82.26;100320.59;4948571;28;20481;-22
2022/01/08 09:46:36;;;;;;;10.38;7.93;;;;;;;0.87;82.52;100311.97;4949034;28;20113;-23
2022/01/08 09:49:03;;;;;;;9.75;7.55;;;;;;;0.86;82.52;100307.63;4946569;28;20107;-23
2022/01/08 09:51:28;;;;;;;9.98;8.40;;;;;;;0.91;82.39;100312.06;4946437;28;20027;-23
2022/01/08 09:53:54;;;;;;;9.00;7.93;;;;;;;0.92;82.36;100313.81;4948500;28;20038;-23
2022/01/08 09:56:25;;;;;;;10.05;8.25;;;;;;;0.93;82.28;100305.19;4946738;28;20101;-21
2022/01/08 09:58:51;;;;;;;9.48;8.18;;;;;;;0.95;82.56;100319.09;4948654;28;20031;-23
2022/01/08 10:01:34;;;;;;;10.48;8.65;;;;;;;0.97;82.30;100312.22;4945032;29;20031;-22
2022/01/08 10:04:02;;;;;;;9.02;7.68;;;;;;;0.98;82.43;100311.38;4950519;28;20063;-23
2022/01/08 10:06:30;;;;;;;11.30;8.45;;;;;;;0.99;82.77;100314.00;4949123;28;20310;-22
2022/01/08 10:08:56;;;;;;;10.50;8.52;;;;;;;1.01;82.79;100312.31;4946042;29;20682;-22
2022/01/08 10:11:23;;;;;;;9.85;7.55;;;;;;;1.03;82.83;100320.16;4946365;28;20031;-21
2022/01/08 10:13:59;;;;;;;9.77;7.82;;;;;;;1.04;82.90;100314.13;4948542;29;20498;-22
2022/01/08 10:19:21;;;;;;;10.18;8.77;;;;;;;1.08;82.65;100308.16;4947015;29;20445;-22
2022/01/08 10:21:48;;;;;;;10.45;7.22;;;;;;;1.10;82.38;100309.06;4946864;29;20031;-23
2022/01/08 10:24:21;;;;;;;10.63;8.27;;;;;;;1.13;82.35;100314.34;4948864;28;20027;-22
2022/01/08 10:26:49;;;;;;;10.43;7.82;;;;;;;1.15;82.65;100309.19;4947820;28;20023;-22
2022/01/08 10:29:18;;;;;;;9.82;7.65;;;;;;;1.18;82.69;100308.38;4947354;28;20098;-22
2022/01/08 10:31:46;;;;;;;10.90;8.48;;;;;;;1.20;82.50;100310.16;4951360;28;20027;-22
2022/01/08 10:34:30;;;;;;;10.50;9.02;;;;;;;1.22;82.14;100307.59;4948122;28;20035;-22
2022/01/08 10:36:56;;;;;;;9.88;8.13;;;;;;;1.24;82.05;100308.53;4950627;29;20062;-22
2022/01/08 10:39:27;;;;;;;10.23;9.02;;;;;;;1.26;82.11;100309.44;4951119;28;20078;-22
2022/01/08 10:41:53;;;;;;;;;;;;;;;1.30;82.18;100308.66;4949987;29;20082;-22
2022/01/08 10:44:25;;;;;;;14.63;8.30;;;;;;;1.31;82.12;100310.44;4951579;28;19921;-22
2022/01/08 10:46:55;;;;;;;10.90;8.57;;;;;;;1.37;82.20;100323.53;4951759;28;20020;-21
2022/01/08 10:49:38;;;;;;;10.32;8.32;;;;;;;1.40;82.29;100313.22;4949842;29;20028;-22
2022/01/08 10:52:06;;;;;;;12.35;9.02;;;;;;;1.46;82.53;100317.69;4949753;29;20023;-23
2022/01/08 10:54:39;;;;;;;12.73;8.85;;;;;;;1.49;82.63;100314.28;4952244;29;20052;-23
2022/01/08 10:57:07;;;;;;;12.93;8.60;;;;;;;1.54;82.91;100310.06;4951473;28;20027;-22
2022/01/08 10:59:33;;;;;;;13.18;9.52;;;;;;;1.58;82.92;100314.50;4945701;28;20035;-21
2022/01/08 11:02:17;;;;;;;12.52;8.75;;;;;;;1.64;83.12;100309.41;4944399;28;20035;-22
2022/01/08 11:04:46;;;;;;;10.57;9.05;;;;;;;1.70;83.00;100305.19;4943697;28;20710;-21
2022/01/08 11:07:15;;;;;;;12.40;9.43;;;;;;;1.76;82.77;100308.81;4944638;28;20043;-22
2022/01/08 11:09:44;;;;;;;14.48;9.57;;;;;;;1.75;82.84;100303.56;4942130;28;20410;-22
2022/01/08 11:12:13;;;;;;;13.27;9.27;;;;;;;1.88;82.96;100316.00;4956498;28;20035;-22
2022/01/08 11:17:17;;;;;;;14.90;9.25;;;;;;;2.01;83.06;100300.63;4942344;28;20019;-22
2022/01/08 11:19:51;;;;;;;13.63;9.90;;;;;;;2.06;82.84;100299.00;4942752;28;20042;-20
2022/01/08 11:22:19;;;;;;;13.82;10.13;;;;;;;2.13;82.92;100298.25;4941476;28;20035;-22
2022/01/08 11:25:15;;;;;;;12.23;9.27;;;;;;;2.20;82.87;100301.00;4943785;28;20035;-19
2022/01/08 11:28:03;;;;;;;13.43;10.38;;;;;;;2.27;82.49;100295.06;4943020;28;20030;-22
2022/01/08 11:30:30;;;;;;;17.95;10.43;;;;;;;2.35;82.83;100289.97;4943758;28;20031;-23
2022/01/08 11:33:01;;;;;;;13.55;10.18;;;;;;;2.42;82.58;100291.84;4940101;28;20050;-22
2022/01/08 11:35:27;;;;;;;12.57;9.30;;;;;;;2.50;82.09;100294.63;4939145;28;20082;-21
2022/01/08 11:37:55;;;;;;;13.32;10.30;;;;;;;2.56;81.68;100290.38;4942521;28;20024;-22
2022/01/08 11:40:23;;;;;;;19.98;10.98;;;;;;;2.64;81.69;100292.25;4941241;28;20038;-22
2022/01/08 11:42:49;;;;;;;14.25;10.32;;;;;;;2.69;81.75;100291.47;4939448;28;20083;-22
2022/01/08 11:45:19;;;;;;;13.55;9.07;;;;;;;2.75;81.22;100290.69;4938526;28;20049;-22
2022/01/08 11:47:47;;;;;;;13.55;10.32;;;;;;;2.84;81.01;100289.09;4938730;28;20523;-21
2022/01/08 11:50:14;;;;;;;11.40;9.55;;;;;;;2.90;80.74;100284.84;4953789;28;21262;-22
2022/01/08 11:52:40;;;;;;;11.07;9.10;;;;;;;2.94;79.96;100278.84;4934387;28;20063;-22
2022/01/08 11:55:06;;;;;;;14.32;9.20;;;;;;;3.01;80.35;100289.38;4938439;28;20517;-20